sensor_id;sensor_type;location;lat;lon;timestamp;temperature;humidity
24226;DHT22;51462;51.422;5.514;2023-03-12T00:02:05;4.80;99.90
24226;DHT22;51462;51.422;5.514;2023-03-12T00:04:31;4.60;99.90
24226;DHT22;51462;51.422;5.514;2023-03-12T00:06:56;4.90;99.90
24226;DHT22;51462;51.422;5.514;2023-03-12T00:09:22;5.30;99.90
24226;DHT22;51462;51.422;5.514;2023-03-12T00:11:47;5.30;99.90
24226;DHT22;51462;51.422;5.514;2023-03-12T00:14:13;5.10;99.90
24226;DHT22;51462;51.422;5.514;2023-03-12T00:16:39;5.00;99.90
24226;DHT22;51462;51.422;5.514;2023-03-12T00:19:04;5.00;99.90
24226;DHT22;51462;51.422;5.514;2023-03-12T00:21:30;4.70;99.90
24226;DHT22;51462;51.422;5.514;2023-03-12T00:23:56;4.60;99.90
24226;DHT22;51462;51.422;5.514;2023-03-12T00:26:22;4.50;99.90
24226;DHT22;51462;51.422;5.514;2023-03-12T00:28:49;4.80;99.90
24226;DHT22;51462;51.422;5.514;2023-03-12T00:31:20;4.70;99.90
24226;DHT22;51462;51.422;5.514;2023-03-12T00:33:47;5.00;99.90
24226;DHT22;51462;51.422;5.514;2023-03-12T00:36:20;5.20;99.90
24226;DHT22;51462;51.422;5.514;2023-03-12T00:38:48;5.30;99.90
24226;DHT22;51462;51.422;5.514;2023-03-12T00:41:13;5.90;99.90
24226;DHT22;51462;51.422;5.514;2023-03-12T00:43:39;6.20;99.90
24226;DHT22;51462;51.422;5.514;2023-03-12T00:46:04;6.30;99.90
24226;DHT22;51462;51.422;5.514;2023-03-12T00:48:30;5.90;99.90
24226;DHT22;51462;51.422;5.514;2023-03-12T00:50:56;6.00;99.90
24226;DHT22;51462;51.422;5.514;2023-03-12T00:53:21;6.00;99.90
24226;DHT22;51462;51.422;5.514;2023-03-12T00:55:47;5.70;99.90
24226;DHT22;51462;51.422;5.514;2023-03-12T00:58:12;5.70;99.90
24226;DHT22;51462;51.422;5.514;2023-03-12T01:00:38;5.70;99.90
24226;DHT22;51462;51.422;5.514;2023-03-12T01:03:04;5.60;99.90
24226;DHT22;51462;51.422;5.514;2023-03-12T01:05:29;5.60;99.90
24226;DHT22;51462;51.422;5.514;2023-03-12T01:07:56;5.40;99.90
24226;DHT22;51462;51.422;5.514;2023-03-12T01:10:21;5.60;99.90
24226;DHT22;51462;51.422;5.514;2023-03-12T01:12:47;5.90;99.90
24226;DHT22;51462;51.422;5.514;2023-03-12T01:15:15;5.20;99.90
24226;DHT22;51462;51.422;5.514;2023-03-12T01:17:41;5.10;99.90
24226;DHT22;51462;51.422;5.514;2023-03-12T01:20:07;5.10;99.90
24226;DHT22;51462;51.422;5.514;2023-03-12T01:22:34;5.90;99.90
24226;DHT22;51462;51.422;5.514;2023-03-12T01:24:59;6.00;99.90
24226;DHT22;51462;51.422;5.514;2023-03-12T01:27:25;5.70;99.90
24226;DHT22;51462;51.422;5.514;2023-03-12T01:29:51;5.60;99.90
24226;DHT22;51462;51.422;5.514;2023-03-12T01:32:16;5.50;99.90
24226;DHT22;51462;51.422;5.514;2023-03-12T01:34:43;5.70;99.90
24226;DHT22;51462;51.422;5.514;2023-03-12T01:37:08;5.70;99.90
24226;DHT22;51462;51.422;5.514;2023-03-12T01:39:34;5.60;99.90
24226;DHT22;51462;51.422;5.514;2023-03-12T01:42:00;5.70;99.90
24226;DHT22;51462;51.422;5.514;2023-03-12T01:44:26;5.80;99.90
24226;DHT22;51462;51.422;5.514;2023-03-12T01:46:51;5.70;99.90
24226;DHT22;51462;51.422;5.514;2023-03-12T01:49:26;6.10;99.90
24226;DHT22;51462;51.422;5.514;2023-03-12T01:54:35;5.90;99.90
24226;DHT22;51462;51.422;5.514;2023-03-12T01:57:04;6.20;99.90
24226;DHT22;51462;51.422;5.514;2023-03-12T01:59:35;6.20;99.90
24226;DHT22;51462;51.422;5.514;2023-03-12T02:02:02;6.10;99.90
24226;DHT22;51462;51.422;5.514;2023-03-12T02:04:30;5.70;99.90
24226;DHT22;51462;51.422;5.514;2023-03-12T02:07:34;6.20;99.90
24226;DHT22;51462;51.422;5.514;2023-03-12T02:09:53;6.20;99.90
24226;DHT22;51462;51.422;5.514;2023-03-12T02:12:19;5.60;99.90
24226;DHT22;51462;51.422;5.514;2023-03-12T02:14:44;5.50;99.90
24226;DHT22;51462;51.422;5.514;2023-03-12T02:17:10;5.40;99.90
24226;DHT22;51462;51.422;5.514;2023-03-12T02:19:59;5.50;99.90
24226;DHT22;51462;51.422;5.514;2023-03-12T02:22:26;5.40;99.90
24226;DHT22;51462;51.422;5.514;2023-03-12T02:24:59;5.40;99.90
24226;DHT22;51462;51.422;5.514;2023-03-12T02:27:32;5.60;99.90
24226;DHT22;51462;51.422;5.514;2023-03-12T02:29:59;5.40;99.90
24226;DHT22;51462;51.422;5.514;2023-03-12T02:32:28;5.70;99.90
24226;DHT22;51462;51.422;5.514;2023-03-12T02:34:58;5.60;99.90
24226;DHT22;51462;51.422;5.514;2023-03-12T02:37:24;5.90;99.90
24226;DHT22;51462;51.422;5.514;2023-03-12T02:40:27;5.70;99.90
24226;DHT22;51462;51.422;5.514;2023-03-12T02:42:54;5.30;99.90
24226;DHT22;51462;51.422;5.514;2023-03-12T02:45:20;5.10;99.90
24226;DHT22;51462;51.422;5.514;2023-03-12T02:47:46;5.30;99.90
24226;DHT22;51462;51.422;5.514;2023-03-12T02:50:11;5.20;99.90
24226;DHT22;51462;51.422;5.514;2023-03-12T02:52:37;5.20;99.90
24226;DHT22;51462;51.422;5.514;2023-03-12T02:55:04;5.20;99.90
24226;DHT22;51462;51.422;5.514;2023-03-12T02:57:30;4.90;99.90
24226;DHT22;51462;51.422;5.514;2023-03-12T02:59:56;4.70;99.90
24226;DHT22;51462;51.422;5.514;2023-03-12T03:02:21;4.70;99.90
24226;DHT22;51462;51.422;5.514;2023-03-12T03:04:47;4.80;99.90
24226;DHT22;51462;51.422;5.514;2023-03-12T03:07:12;4.80;99.90
24226;DHT22;51462;51.422;5.514;2023-03-12T03:09:39;4.70;99.90
24226;DHT22;51462;51.422;5.514;2023-03-12T03:12:05;4.50;99.90
24226;DHT22;51462;51.422;5.514;2023-03-12T03:14:30;4.70;99.90
24226;DHT22;51462;51.422;5.514;2023-03-12T03:16:56;4.50;99.90
24226;DHT22;51462;51.422;5.514;2023-03-12T03:19:22;4.80;99.90
24226;DHT22;51462;51.422;5.514;2023-03-12T03:21:47;4.90;99.90
24226;DHT22;51462;51.422;5.514;2023-03-12T03:24:13;4.90;99.90
24226;DHT22;51462;51.422;5.514;2023-03-12T03:26:39;5.20;99.90
24226;DHT22;51462;51.422;5.514;2023-03-12T03:29:05;4.90;99.90
24226;DHT22;51462;51.422;5.514;2023-03-12T03:31:30;5.30;99.90
24226;DHT22;51462;51.422;5.514;2023-03-12T03:33:56;5.20;99.90
24226;DHT22;51462;51.422;5.514;2023-03-12T03:36:22;5.80;99.90
24226;DHT22;51462;51.422;5.514;2023-03-12T03:38:47;5.20;99.90
24226;DHT22;51462;51.422;5.514;2023-03-12T03:41:19;5.40;99.90
24226;DHT22;51462;51.422;5.514;2023-03-12T03:43:45;5.40;99.90
24226;DHT22;51462;51.422;5.514;2023-03-12T03:46:11;5.60;99.90
24226;DHT22;51462;51.422;5.514;2023-03-12T03:48:38;5.20;99.90
24226;DHT22;51462;51.422;5.514;2023-03-12T03:51:05;5.00;99.90
24226;DHT22;51462;51.422;5.514;2023-03-12T03:53:32;5.00;99.90
24226;DHT22;51462;51.422;5.514;2023-03-12T03:56:04;5.20;99.90
24226;DHT22;51462;51.422;5.514;2023-03-12T03:58:30;5.80;99.90
24226;DHT22;51462;51.422;5.514;2023-03-12T04:00:55;6.00;99.90
24226;DHT22;51462;51.422;5.514;2023-03-12T04:03:21;6.10;99.90
24226;DHT22;51462;51.422;5.514;2023-03-12T04:05:53;6.00;99.90
24226;DHT22;51462;51.422;5.514;2023-03-12T04:08:19;6.20;99.90
24226;DHT22;51462;51.422;5.514;2023-03-12T04:10:44;5.90;99.90
24226;DHT22;51462;51.422;5.514;2023-03-12T04:13:10;5.90;99.90
24226;DHT22;51462;51.422;5.514;2023-03-12T04:15:35;5.90;99.90
24226;DHT22;51462;51.422;5.514;2023-03-12T04:18:01;5.60;99.90
24226;DHT22;51462;51.422;5.514;2023-03-12T04:20:26;5.50;99.90
24226;DHT22;51462;51.422;5.514;2023-03-12T04:22:52;5.90;99.90
24226;DHT22;51462;51.422;5.514;2023-03-12T04:25:17;5.50;99.90
24226;DHT22;51462;51.422;5.514;2023-03-12T04:27:43;5.40;99.90
24226;DHT22;51462;51.422;5.514;2023-03-12T04:30:09;5.70;99.90
24226;DHT22;51462;51.422;5.514;2023-03-12T04:32:35;5.60;99.90
24226;DHT22;51462;51.422;5.514;2023-03-12T04:35:00;5.80;99.90
24226;DHT22;51462;51.422;5.514;2023-03-12T04:37:26;5.50;99.90
24226;DHT22;51462;51.422;5.514;2023-03-12T04:39:52;5.50;99.90
24226;DHT22;51462;51.422;5.514;2023-03-12T04:42:17;5.80;99.90
24226;DHT22;51462;51.422;5.514;2023-03-12T04:44:43;5.90;99.90
24226;DHT22;51462;51.422;5.514;2023-03-12T04:47:08;6.00;99.90
24226;DHT22;51462;51.422;5.514;2023-03-12T04:49:34;5.90;99.90
24226;DHT22;51462;51.422;5.514;2023-03-12T04:51:59;5.70;99.90
24226;DHT22;51462;51.422;5.514;2023-03-12T04:54:25;5.90;99.90
24226;DHT22;51462;51.422;5.514;2023-03-12T04:56:50;5.70;99.90
24226;DHT22;51462;51.422;5.514;2023-03-12T04:59:16;5.90;99.90
24226;DHT22;51462;51.422;5.514;2023-03-12T05:01:42;5.80;99.90
24226;DHT22;51462;51.422;5.514;2023-03-12T05:04:08;5.50;99.90
24226;DHT22;51462;51.422;5.514;2023-03-12T05:06:34;5.40;99.90
24226;DHT22;51462;51.422;5.514;2023-03-12T05:09:00;5.40;99.90
24226;DHT22;51462;51.422;5.514;2023-03-12T05:11:25;5.20;99.90
24226;DHT22;51462;51.422;5.514;2023-03-12T05:13:51;5.60;99.90
24226;DHT22;51462;51.422;5.514;2023-03-12T05:16:17;5.60;99.90
24226;DHT22;51462;51.422;5.514;2023-03-12T05:18:43;5.80;99.90
24226;DHT22;51462;51.422;5.514;2023-03-12T05:21:16;6.00;99.90
24226;DHT22;51462;51.422;5.514;2023-03-12T05:23:42;6.00;99.90
24226;DHT22;51462;51.422;5.514;2023-03-12T05:26:19;5.90;99.90
24226;DHT22;51462;51.422;5.514;2023-03-12T05:28:45;5.70;99.90
24226;DHT22;51462;51.422;5.514;2023-03-12T05:31:11;5.60;99.90
24226;DHT22;51462;51.422;5.514;2023-03-12T05:33:37;5.60;99.90
24226;DHT22;51462;51.422;5.514;2023-03-12T05:36:03;5.60;99.90
24226;DHT22;51462;51.422;5.514;2023-03-12T05:38:29;5.70;99.90
24226;DHT22;51462;51.422;5.514;2023-03-12T05:40:56;5.80;99.90
24226;DHT22;51462;51.422;5.514;2023-03-12T05:43:24;5.50;99.90
24226;DHT22;51462;51.422;5.514;2023-03-12T05:45:49;5.60;99.90
24226;DHT22;51462;51.422;5.514;2023-03-12T05:48:15;5.60;99.90
24226;DHT22;51462;51.422;5.514;2023-03-12T05:50:41;5.60;99.90
24226;DHT22;51462;51.422;5.514;2023-03-12T05:53:07;5.70;99.90
24226;DHT22;51462;51.422;5.514;2023-03-12T05:55:37;5.60;99.90
24226;DHT22;51462;51.422;5.514;2023-03-12T05:58:04;5.60;99.90
24226;DHT22;51462;51.422;5.514;2023-03-12T06:00:31;6.10;99.90
24226;DHT22;51462;51.422;5.514;2023-03-12T06:02:56;5.60;99.90
24226;DHT22;51462;51.422;5.514;2023-03-12T06:05:22;5.50;99.90
24226;DHT22;51462;51.422;5.514;2023-03-12T06:07:48;5.40;99.90
24226;DHT22;51462;51.422;5.514;2023-03-12T06:10:13;5.70;99.90
24226;DHT22;51462;51.422;5.514;2023-03-12T06:12:39;5.60;99.90
24226;DHT22;51462;51.422;5.514;2023-03-12T06:15:05;5.70;99.90
24226;DHT22;51462;51.422;5.514;2023-03-12T06:17:31;5.10;99.90
24226;DHT22;51462;51.422;5.514;2023-03-12T06:19:57;5.00;99.90
24226;DHT22;51462;51.422;5.514;2023-03-12T06:22:23;5.30;99.90
24226;DHT22;51462;51.422;5.514;2023-03-12T06:24:48;5.40;99.90
24226;DHT22;51462;51.422;5.514;2023-03-12T06:27:14;5.50;99.90
24226;DHT22;51462;51.422;5.514;2023-03-12T06:29:40;5.00;99.90
24226;DHT22;51462;51.422;5.514;2023-03-12T06:32:07;5.00;99.90
24226;DHT22;51462;51.422;5.514;2023-03-12T06:34:32;4.80;99.90
24226;DHT22;51462;51.422;5.514;2023-03-12T06:36:58;5.00;99.90
24226;DHT22;51462;51.422;5.514;2023-03-12T06:39:24;5.30;99.90
24226;DHT22;51462;51.422;5.514;2023-03-12T06:41:50;4.90;99.90
24226;DHT22;51462;51.422;5.514;2023-03-12T06:44:16;5.30;99.90
24226;DHT22;51462;51.422;5.514;2023-03-12T06:46:41;5.50;99.90
24226;DHT22;51462;51.422;5.514;2023-03-12T06:49:09;5.10;99.90
24226;DHT22;51462;51.422;5.514;2023-03-12T06:51:35;5.20;99.90
24226;DHT22;51462;51.422;5.514;2023-03-12T06:54:01;5.20;99.90
24226;DHT22;51462;51.422;5.514;2023-03-12T06:56:27;5.20;99.90
24226;DHT22;51462;51.422;5.514;2023-03-12T06:58:53;5.40;99.90
24226;DHT22;51462;51.422;5.514;2023-03-12T07:01:19;5.40;99.90
24226;DHT22;51462;51.422;5.514;2023-03-12T07:03:45;5.60;99.90
24226;DHT22;51462;51.422;5.514;2023-03-12T07:06:15;5.50;99.90
24226;DHT22;51462;51.422;5.514;2023-03-12T07:08:41;5.30;99.90
24226;DHT22;51462;51.422;5.514;2023-03-12T07:11:07;5.20;99.90
24226;DHT22;51462;51.422;5.514;2023-03-12T07:13:33;5.40;99.90
24226;DHT22;51462;51.422;5.514;2023-03-12T07:15:58;5.50;99.90
24226;DHT22;51462;51.422;5.514;2023-03-12T07:18:24;5.30;99.90
24226;DHT22;51462;51.422;5.514;2023-03-12T07:20:51;5.40;99.90
24226;DHT22;51462;51.422;5.514;2023-03-12T07:23:16;5.40;99.90
24226;DHT22;51462;51.422;5.514;2023-03-12T07:25:43;5.50;99.90
24226;DHT22;51462;51.422;5.514;2023-03-12T07:28:10;5.50;99.90
24226;DHT22;51462;51.422;5.514;2023-03-12T07:30:36;5.30;99.90
24226;DHT22;51462;51.422;5.514;2023-03-12T07:33:07;5.50;99.90
24226;DHT22;51462;51.422;5.514;2023-03-12T07:35:34;5.50;99.90
24226;DHT22;51462;51.422;5.514;2023-03-12T07:38:00;5.30;99.90
24226;DHT22;51462;51.422;5.514;2023-03-12T07:40:26;5.10;99.90
24226;DHT22;51462;51.422;5.514;2023-03-12T07:42:52;5.00;99.90
24226;DHT22;51462;51.422;5.514;2023-03-12T07:45:18;5.10;99.90
24226;DHT22;51462;51.422;5.514;2023-03-12T07:47:44;5.10;99.90
24226;DHT22;51462;51.422;5.514;2023-03-12T07:50:10;5.10;99.90
24226;DHT22;51462;51.422;5.514;2023-03-12T07:52:36;5.20;99.90
24226;DHT22;51462;51.422;5.514;2023-03-12T07:55:01;4.90;99.90
24226;DHT22;51462;51.422;5.514;2023-03-12T07:57:27;5.00;99.90
24226;DHT22;51462;51.422;5.514;2023-03-12T07:59:52;5.10;99.90
24226;DHT22;51462;51.422;5.514;2023-03-12T08:02:18;5.20;99.90
24226;DHT22;51462;51.422;5.514;2023-03-12T08:04:45;5.20;99.90
24226;DHT22;51462;51.422;5.514;2023-03-12T08:07:11;5.10;99.90
24226;DHT22;51462;51.422;5.514;2023-03-12T08:09:37;5.20;99.90
24226;DHT22;51462;51.422;5.514;2023-03-12T08:12:04;5.30;99.90
24226;DHT22;51462;51.422;5.514;2023-03-12T08:14:30;5.50;99.90
24226;DHT22;51462;51.422;5.514;2023-03-12T08:16:56;5.60;99.90
24226;DHT22;51462;51.422;5.514;2023-03-12T08:19:22;5.40;99.90
24226;DHT22;51462;51.422;5.514;2023-03-12T08:21:49;5.40;99.90
24226;DHT22;51462;51.422;5.514;2023-03-12T08:24:15;5.60;99.90
24226;DHT22;51462;51.422;5.514;2023-03-12T08:26:40;5.40;99.90
24226;DHT22;51462;51.422;5.514;2023-03-12T08:29:06;5.30;99.90
24226;DHT22;51462;51.422;5.514;2023-03-12T08:31:32;5.40;99.90
24226;DHT22;51462;51.422;5.514;2023-03-12T08:33:57;5.40;99.90
24226;DHT22;51462;51.422;5.514;2023-03-12T08:36:23;5.50;99.90
24226;DHT22;51462;51.422;5.514;2023-03-12T08:38:48;5.50;99.90
24226;DHT22;51462;51.422;5.514;2023-03-12T08:41:14;5.70;99.90
24226;DHT22;51462;51.422;5.514;2023-03-12T08:43:39;5.70;99.90
24226;DHT22;51462;51.422;5.514;2023-03-12T08:46:05;5.70;99.90
24226;DHT22;51462;51.422;5.514;2023-03-12T08:48:31;5.80;99.90
24226;DHT22;51462;51.422;5.514;2023-03-12T08:50:58;5.80;99.90
24226;DHT22;51462;51.422;5.514;2023-03-12T08:53:25;5.90;99.90
24226;DHT22;51462;51.422;5.514;2023-03-12T08:55:52;6.00;99.90
24226;DHT22;51462;51.422;5.514;2023-03-12T08:58:18;6.00;99.90
24226;DHT22;51462;51.422;5.514;2023-03-12T09:00:44;6.00;99.90
24226;DHT22;51462;51.422;5.514;2023-03-12T09:03:09;6.00;99.90
24226;DHT22;51462;51.422;5.514;2023-03-12T09:05:38;6.00;99.90
24226;DHT22;51462;51.422;5.514;2023-03-12T09:08:04;6.10;99.90
24226;DHT22;51462;51.422;5.514;2023-03-12T09:10:29;6.20;99.90
24226;DHT22;51462;51.422;5.514;2023-03-12T09:12:55;6.20;99.90
24226;DHT22;51462;51.422;5.514;2023-03-12T09:15:20;6.30;99.90
24226;DHT22;51462;51.422;5.514;2023-03-12T09:17:46;6.30;99.90
24226;DHT22;51462;51.422;5.514;2023-03-12T09:20:12;6.30;99.90
24226;DHT22;51462;51.422;5.514;2023-03-12T09:22:39;6.30;99.90
24226;DHT22;51462;51.422;5.514;2023-03-12T09:25:06;6.40;99.90
24226;DHT22;51462;51.422;5.514;2023-03-12T09:27:44;6.40;99.90
24226;DHT22;51462;51.422;5.514;2023-03-12T09:30:13;6.50;99.90
24226;DHT22;51462;51.422;5.514;2023-03-12T09:32:39;6.50;99.90
24226;DHT22;51462;51.422;5.514;2023-03-12T09:35:06;6.60;99.90
24226;DHT22;51462;51.422;5.514;2023-03-12T09:37:32;6.70;99.90
24226;DHT22;51462;51.422;5.514;2023-03-12T09:39:58;6.70;99.90
24226;DHT22;51462;51.422;5.514;2023-03-12T09:42:39;6.90;99.90
24226;DHT22;51462;51.422;5.514;2023-03-12T09:45:07;7.00;99.90
24226;DHT22;51462;51.422;5.514;2023-03-12T09:47:51;7.10;99.90
24226;DHT22;51462;51.422;5.514;2023-03-12T09:50:26;7.10;99.90
24226;DHT22;51462;51.422;5.514;2023-03-12T09:52:57;7.20;99.90
24226;DHT22;51462;51.422;5.514;2023-03-12T09:55:24;7.20;99.90
24226;DHT22;51462;51.422;5.514;2023-03-12T09:57:51;7.30;99.90
24226;DHT22;51462;51.422;5.514;2023-03-12T10:00:20;7.40;99.90
24226;DHT22;51462;51.422;5.514;2023-03-12T10:05:45;7.50;99.90
24226;DHT22;51462;51.422;5.514;2023-03-12T10:14:14;7.70;99.90
24226;DHT22;51462;51.422;5.514;2023-03-12T10:22:25;7.90;99.90
24226;DHT22;51462;51.422;5.514;2023-03-12T10:25:03;7.90;99.90
24226;DHT22;51462;51.422;5.514;2023-03-12T10:27:34;7.90;99.90
24226;DHT22;51462;51.422;5.514;2023-03-12T10:30:02;8.10;99.90
24226;DHT22;51462;51.422;5.514;2023-03-12T10:32:45;8.10;99.90
24226;DHT22;51462;51.422;5.514;2023-03-12T10:35:22;8.10;99.90
24226;DHT22;51462;51.422;5.514;2023-03-12T10:37:58;8.10;99.90
24226;DHT22;51462;51.422;5.514;2023-03-12T10:40:33;8.20;99.90
24226;DHT22;51462;51.422;5.514;2023-03-12T10:43:00;8.30;99.90
24226;DHT22;51462;51.422;5.514;2023-03-12T10:48:21;8.30;99.90
24226;DHT22;51462;51.422;5.514;2023-03-12T10:51:19;8.40;99.90
24226;DHT22;51462;51.422;5.514;2023-03-12T10:53:45;8.40;99.90
24226;DHT22;51462;51.422;5.514;2023-03-12T10:56:17;8.40;99.90
24226;DHT22;51462;51.422;5.514;2023-03-12T10:58:45;8.50;99.90
24226;DHT22;51462;51.422;5.514;2023-03-12T11:03:40;8.50;99.90
24226;DHT22;51462;51.422;5.514;2023-03-12T11:06:07;8.60;99.90
24226;DHT22;51462;51.422;5.514;2023-03-12T11:08:36;8.70;99.90
24226;DHT22;51462;51.422;5.514;2023-03-12T11:11:03;8.70;99.90
24226;DHT22;51462;51.422;5.514;2023-03-12T11:13:33;8.80;99.90
24226;DHT22;51462;51.422;5.514;2023-03-12T11:16:02;9.00;99.90
24226;DHT22;51462;51.422;5.514;2023-03-12T11:18:33;9.00;99.90
24226;DHT22;51462;51.422;5.514;2023-03-12T11:23:36;9.00;99.90
24226;DHT22;51462;51.422;5.514;2023-03-12T11:26:03;9.10;99.90
24226;DHT22;51462;51.422;5.514;2023-03-12T11:31:22;9.20;99.90
24226;DHT22;51462;51.422;5.514;2023-03-12T11:33:51;9.20;99.90
24226;DHT22;51462;51.422;5.514;2023-03-12T11:41:53;9.40;99.90
24226;DHT22;51462;51.422;5.514;2023-03-12T11:44:35;9.50;99.90
24226;DHT22;51462;51.422;5.514;2023-03-12T11:47:43;9.50;99.90
24226;DHT22;51462;51.422;5.514;2023-03-12T11:55:40;9.80;99.90
24226;DHT22;51462;51.422;5.514;2023-03-12T12:01:04;9.90;99.90
24226;DHT22;51462;51.422;5.514;2023-03-12T12:06:15;10.00;99.90
24226;DHT22;51462;51.422;5.514;2023-03-12T12:14:47;10.40;99.90
24226;DHT22;51462;51.422;5.514;2023-03-12T12:17:53;10.50;99.90
24226;DHT22;51462;51.422;5.514;2023-03-12T12:21:01;10.60;99.90
24226;DHT22;51462;51.422;5.514;2023-03-12T12:26:28;10.80;99.90
24226;DHT22;51462;51.422;5.514;2023-03-12T12:31:55;11.00;99.90
24226;DHT22;51462;51.422;5.514;2023-03-12T12:40:38;11.00;99.90
24226;DHT22;51462;51.422;5.514;2023-03-12T12:43:26;11.20;99.90
24226;DHT22;51462;51.422;5.514;2023-03-12T12:46:08;11.20;99.90
24226;DHT22;51462;51.422;5.514;2023-03-12T12:51:31;11.10;99.90
24226;DHT22;51462;51.422;5.514;2023-03-12T12:54:06;11.20;99.90
24226;DHT22;51462;51.422;5.514;2023-03-12T12:56:53;11.30;99.90
24226;DHT22;51462;51.422;5.514;2023-03-12T13:01:47;11.60;99.90
24226;DHT22;51462;51.422;5.514;2023-03-12T13:04:22;11.50;99.90
24226;DHT22;51462;51.422;5.514;2023-03-12T13:09:23;11.40;99.90
24226;DHT22;51462;51.422;5.514;2023-03-12T13:14:49;11.60;99.90
24226;DHT22;51462;51.422;5.514;2023-03-12T13:17:33;11.60;99.90
24226;DHT22;51462;51.422;5.514;2023-03-12T13:22:44;11.70;99.90
24226;DHT22;51462;51.422;5.514;2023-03-12T13:28:00;11.70;99.90
24226;DHT22;51462;51.422;5.514;2023-03-12T13:30:44;11.60;99.90
24226;DHT22;51462;51.422;5.514;2023-03-12T13:33:13;11.70;99.90
24226;DHT22;51462;51.422;5.514;2023-03-12T13:35:39;11.70;99.90
24226;DHT22;51462;51.422;5.514;2023-03-12T13:38:10;11.50;99.90
24226;DHT22;51462;51.422;5.514;2023-03-12T13:40:52;11.50;99.90
24226;DHT22;51462;51.422;5.514;2023-03-12T13:46:28;11.60;99.90
24226;DHT22;51462;51.422;5.514;2023-03-12T13:48:57;11.80;99.90
24226;DHT22;51462;51.422;5.514;2023-03-12T13:51:25;11.80;99.90
24226;DHT22;51462;51.422;5.514;2023-03-12T13:54:01;11.80;99.90
24226;DHT22;51462;51.422;5.514;2023-03-12T13:56:30;11.80;99.90
24226;DHT22;51462;51.422;5.514;2023-03-12T13:59:02;11.70;99.90
24226;DHT22;51462;51.422;5.514;2023-03-12T14:02:03;11.80;99.90
24226;DHT22;51462;51.422;5.514;2023-03-12T14:04:35;11.70;99.90
24226;DHT22;51462;51.422;5.514;2023-03-12T14:07:16;11.70;99.90
24226;DHT22;51462;51.422;5.514;2023-03-12T14:17:59;11.70;99.90
24226;DHT22;51462;51.422;5.514;2023-03-12T14:20:26;11.80;99.90
24226;DHT22;51462;51.422;5.514;2023-03-12T14:23:14;11.80;99.90
24226;DHT22;51462;51.422;5.514;2023-03-12T14:25:45;11.80;99.90
24226;DHT22;51462;51.422;5.514;2023-03-12T14:28:20;11.60;99.90
24226;DHT22;51462;51.422;5.514;2023-03-12T14:31:04;11.80;99.90
24226;DHT22;51462;51.422;5.514;2023-03-12T14:33:41;11.70;99.90
24226;DHT22;51462;51.422;5.514;2023-03-12T14:36:18;11.70;99.90
24226;DHT22;51462;51.422;5.514;2023-03-12T14:38:46;11.70;99.90
24226;DHT22;51462;51.422;5.514;2023-03-12T14:41:23;11.60;99.90
24226;DHT22;51462;51.422;5.514;2023-03-12T14:43:52;11.60;99.90
24226;DHT22;51462;51.422;5.514;2023-03-12T14:46:20;11.70;99.90
24226;DHT22;51462;51.422;5.514;2023-03-12T14:48:48;11.70;99.90
24226;DHT22;51462;51.422;5.514;2023-03-12T14:51:28;11.70;99.90
24226;DHT22;51462;51.422;5.514;2023-03-12T14:53:55;11.60;99.90
24226;DHT22;51462;51.422;5.514;2023-03-12T14:56:29;11.70;99.90
24226;DHT22;51462;51.422;5.514;2023-03-12T14:58:59;11.60;99.90
24226;DHT22;51462;51.422;5.514;2023-03-12T15:01:31;11.70;99.90
24226;DHT22;51462;51.422;5.514;2023-03-12T15:04:02;11.70;99.90
24226;DHT22;51462;51.422;5.514;2023-03-12T15:06:33;11.70;99.90
24226;DHT22;51462;51.422;5.514;2023-03-12T15:09:01;11.70;99.90
24226;DHT22;51462;51.422;5.514;2023-03-12T15:11:29;11.80;99.90
24226;DHT22;51462;51.422;5.514;2023-03-12T15:14:02;11.70;99.90
24226;DHT22;51462;51.422;5.514;2023-03-12T15:16:28;11.80;99.90
24226;DHT22;51462;51.422;5.514;2023-03-12T15:18:55;11.90;99.90
24226;DHT22;51462;51.422;5.514;2023-03-12T15:21:21;11.80;99.90
24226;DHT22;51462;51.422;5.514;2023-03-12T15:23:48;11.80;99.90
24226;DHT22;51462;51.422;5.514;2023-03-12T15:29:02;11.70;99.90
24226;DHT22;51462;51.422;5.514;2023-03-12T15:31:46;11.80;99.90
24226;DHT22;51462;51.422;5.514;2023-03-12T15:34:25;11.80;99.90
24226;DHT22;51462;51.422;5.514;2023-03-12T15:36:52;11.80;99.90
24226;DHT22;51462;51.422;5.514;2023-03-12T15:39:46;11.80;99.90
24226;DHT22;51462;51.422;5.514;2023-03-12T15:42:16;11.90;99.90
24226;DHT22;51462;51.422;5.514;2023-03-12T15:47:17;11.70;99.90
24226;DHT22;51462;51.422;5.514;2023-03-12T15:49:43;11.80;99.90
24226;DHT22;51462;51.422;5.514;2023-03-12T15:57:53;11.70;99.90
24226;DHT22;51462;51.422;5.514;2023-03-12T16:00:24;11.70;99.90
24226;DHT22;51462;51.422;5.514;2023-03-12T16:02:51;11.60;99.90
24226;DHT22;51462;51.422;5.514;2023-03-12T16:05:19;11.60;99.90
24226;DHT22;51462;51.422;5.514;2023-03-12T16:07:45;11.60;99.90
24226;DHT22;51462;51.422;5.514;2023-03-12T16:10:16;11.60;99.90
24226;DHT22;51462;51.422;5.514;2023-03-12T16:12:43;11.60;99.90
24226;DHT22;51462;51.422;5.514;2023-03-12T16:15:14;11.60;99.90
24226;DHT22;51462;51.422;5.514;2023-03-12T16:17:40;11.50;99.90
24226;DHT22;51462;51.422;5.514;2023-03-12T16:20:10;11.50;99.90
24226;DHT22;51462;51.422;5.514;2023-03-12T16:22:35;11.60;99.90
24226;DHT22;51462;51.422;5.514;2023-03-12T16:25:01;11.50;99.90
24226;DHT22;51462;51.422;5.514;2023-03-12T16:27:26;11.50;99.90
24226;DHT22;51462;51.422;5.514;2023-03-12T16:29:52;11.50;99.90
24226;DHT22;51462;51.422;5.514;2023-03-12T16:32:18;11.40;99.90
24226;DHT22;51462;51.422;5.514;2023-03-12T16:34:44;11.50;99.90
24226;DHT22;51462;51.422;5.514;2023-03-12T16:37:13;11.60;99.90
24226;DHT22;51462;51.422;5.514;2023-03-12T16:39:39;11.50;99.90
24226;DHT22;51462;51.422;5.514;2023-03-12T16:42:14;11.60;99.90
24226;DHT22;51462;51.422;5.514;2023-03-12T16:44:41;11.50;99.90
24226;DHT22;51462;51.422;5.514;2023-03-12T16:47:10;11.40;99.90
24226;DHT22;51462;51.422;5.514;2023-03-12T16:49:36;11.40;99.90
24226;DHT22;51462;51.422;5.514;2023-03-12T16:52:18;11.40;99.90
24226;DHT22;51462;51.422;5.514;2023-03-12T16:54:45;11.40;99.90
24226;DHT22;51462;51.422;5.514;2023-03-12T16:57:36;11.40;99.90
24226;DHT22;51462;51.422;5.514;2023-03-12T17:00:04;11.30;99.90
24226;DHT22;51462;51.422;5.514;2023-03-12T17:02:33;11.30;99.90
24226;DHT22;51462;51.422;5.514;2023-03-12T17:04:59;11.30;99.90
24226;DHT22;51462;51.422;5.514;2023-03-12T17:07:24;11.40;99.90
24226;DHT22;51462;51.422;5.514;2023-03-12T17:09:50;11.40;99.90
24226;DHT22;51462;51.422;5.514;2023-03-12T17:12:28;11.30;99.90
24226;DHT22;51462;51.422;5.514;2023-03-12T17:14:55;11.30;99.90
24226;DHT22;51462;51.422;5.514;2023-03-12T17:17:21;11.30;99.90
24226;DHT22;51462;51.422;5.514;2023-03-12T17:19:48;11.30;99.90
24226;DHT22;51462;51.422;5.514;2023-03-12T17:22:14;11.20;99.90
24226;DHT22;51462;51.422;5.514;2023-03-12T17:24:40;11.30;99.90
24226;DHT22;51462;51.422;5.514;2023-03-12T17:27:05;11.30;99.90
24226;DHT22;51462;51.422;5.514;2023-03-12T17:29:31;11.30;99.90
24226;DHT22;51462;51.422;5.514;2023-03-12T17:31:57;11.30;99.90
24226;DHT22;51462;51.422;5.514;2023-03-12T17:34:22;11.20;99.90